Ana Sayfa
METAR-TAF:

METAR-TAF

Havaalanları :

Edmonton, Alberta, Kanada

Enlem: 53-18N, Boylam: 113-35W, yükseklik: 715 m

Güncel hava durumu gözlemi

Rapor saat 04:00 UTC de 31 dakika önce yapıldı.
Rüzgar doğudan 7 kt
Sıcaklık 10°C
Nem 50%
Basınç 1018 hPa
Görüş mesafesi: 24.1 km
Açık gökyüzü

METAR: CYEG 270400Z 10007KT 15SM SKC 10/M00 A3007 RMK SLP195

Saat: 22:31 (04:31 UTC)

Tahmin

Rapor saat 02:39 UTC de 1 saat ve 52 dakika önce yapıldı.
Ayın 27'si saat 03 UTC'den ayın 27'si saat 24 UTC'ye kadar geçerli Tahmin
Rüzgar kuzeydoğudan 6 kt
Görüş mesafesi: 10 km
28000 ft yükseklikte az bulutlu
Ayın 27'si saat 0900 UTC'den
Rüzgar güney/güneydoğudan 8 kt
Görüş mesafesi: 10 km
Açık gökyüzü
Ayın 27'si saat 1700 UTC'den
Rüzgar güney/güneydoğudan 12 kt ve 22 kt'a kadar ani rüzgarlar
Görüş mesafesi: 10 km
Açık gökyüzü

TAF: CYEG 270239Z 2703/2724 04006KT P6SM FEW280 FM270900 15008KT P6SM SKC FM271700 16012G22KT P6SM SKC RMK NXT FCST BY 270600Z

4.000'den fazla havaalanı için hava durumu gözlemleri ve tahminleri (METAR ve TAF raporları).

Kullanılabilir istasyonlar harita üzerinde sarı ve kırmızı noktalarla gösterilir.

İstasyonun adını görmek için fareyi noktanın üzerinde gezdirin.

Sonrasında hava gözlem ve tahminlerini görmek için tıklayın.

Haritayı değiştirmek için: yaklaştırmak için siyah artı işaretli yeşil düğmeye ve uzaklaştırmak için de eksi işaretli düğmeye hızla tıklayın; bitişik haritalar için yeşil okları kullanın.


METAR-TAF: